Back to Top

Language: 

My Weather Underground Personal Weather Station Historical Data with Graphs...

Delerius Weather Station Historical Data
Daily Summary for February 5, 2017 Units:  Metric    English   Both
« Previous Day
Next Day »
Daily Weekly Monthly Yearly Custom
  High: Low: Average:
Temperature: 6.7 °C 0.3 °C 3.5 °C
Dew Point: 4.1 °C -0.7 °C 2 °C
Humidity: 96 % 78 % 90 %
Wind Speed: 9.7 km/h 0 km/h 1.6 km/h
Wind Gust: 32.2 km/h - -
Wind:- - South
Pressure: 1015.1 hPa 997.2 hPa -
Precipitation: 0 mm    
Historical Graphs
 
 
Tabular Data for February 5, 2017
Time Temperature Dew Point Pressure Wind Wind Speed Wind Gust Humidity Rainfall Rate (Hourly) solar Conditions
00:00 1.7 °C 0.3 °C 997.2 hPa Calm   32.2 km/h 91 % 0 mm 0 W/m2
00:05 1.6 °C 0.3 °C 997.2 hPa Calm   32.2 km/h 91 % 0 mm 0 W/m2
00:15 1.5 °C 0.2 °C 997.2 hPa Calm   3.2 km/h 91 % 0 mm 0 W/m2
00:20 1.4 °C 0.1 °C 997.2 hPa Calm     91 % 0 mm 0 W/m2
00:25 1.3 °C 0 °C 997.2 hPa Calm     91 % 0 mm 0 W/m2
00:35 1.2 °C 0.1 °C 997.2 hPa Calm     92 % 0 mm 0 W/m2
00:40 1.2 °C 0.1 °C 997.2 hPa Calm     92 % 0 mm 0 W/m2
00:45 1.2 °C 0 °C 997.5 hPa Calm     92 % 0 mm 0 W/m2
00:50 1.1 °C -0.1 °C 997.5 hPa Calm     92 % 0 mm 0 W/m2
00:55 0.9 °C -0.2 °C 997.2 hPa Calm     92 % 0 mm 0 W/m2
01:05 1.2 °C 0.2 °C 997.2 hPa Calm   6.4 km/h 93 % 0 mm 0 W/m2
01:10 1.3 °C 0.3 °C 997.2 hPa Calm   6.4 km/h 93 % 0 mm 0 W/m2
01:15 1.5 °C 0.5 °C 997.2 hPa Calm   6.4 km/h 93 % 0 mm 0 W/m2
01:20 1.7 °C 0.8 °C 997.2 hPa SE 1.6 km/h 6.4 km/h 94 % 0 mm 0 W/m2
01:25 1.8 °C 0.8 °C 997.2 hPa Calm   6.4 km/h 93 % 0 mm 0 W/m2
01:30 1.8 °C 0.8 °C 997.2 hPa SE 1.6 km/h 6.4 km/h 93 % 0 mm 0 W/m2
01:40 2 °C 1 °C 997.5 hPa SE 3.2 km/h 6.4 km/h 93 % 0 mm 0 W/m2
01:45 2.1 °C 1.1 °C 997.5 hPa SE 4.8 km/h 6.4 km/h 93 % 0 mm 0 W/m2
01:50 2.1 °C 1.1 °C 997.5 hPa SE 6.4 km/h 6.4 km/h 93 % 0 mm 0 W/m2
01:55 2.2 °C 1.2 °C 997.5 hPa SE 6.4 km/h 6.4 km/h 93 % 0 mm 0 W/m2
02:00 2.2 °C 1.2 °C 997.5 hPa SE 6.4 km/h 6.4 km/h 93 % 0 mm 0 W/m2
02:10 2.3 °C 1.3 °C 997.5 hPa ESE 6.4 km/h 9.7 km/h 93 % 0 mm 0 W/m2
02:15 2.4 °C 1.4 °C 997.5 hPa SE 6.4 km/h 9.7 km/h 93 % 0 mm 0 W/m2
02:20 2.4 °C 1.4 °C 997.5 hPa SE 8 km/h 8 km/h 93 % 0 mm 0 W/m2
02:25 2.4 °C 1.4 °C 997.5 hPa SE 9.7 km/h 9.7 km/h 93 % 0 mm 0 W/m2
02:30 2.4 °C 1.4 °C 997.5 hPa SE 9.7 km/h 9.7 km/h 93 % 0 mm 0 W/m2
02:35 2.4 °C 1.4 °C 997.5 hPa SE 8 km/h 9.7 km/h 93 % 0 mm 0 W/m2
02:45 2.4 °C 1.4 °C 997.5 hPa ESE 4.8 km/h 6.4 km/h 93 % 0 mm 0 W/m2
02:50 2.4 °C 1.5 °C 997.5 hPa SE 4.8 km/h 8 km/h 94 % 0 mm 0 W/m2
02:55 2.4 °C 1.5 °C 997.5 hPa SE 6.4 km/h 8 km/h 94 % 0 mm 0 W/m2
03:00 2.4 °C 1.5 °C 997.9 hPa SE 8 km/h 8 km/h 94 % 0 mm 0 W/m2
03:05 2.4 °C 1.5 °C 997.9 hPa SE 8 km/h 9.7 km/h 94 % 0 mm 0 W/m2
03:15 2.4 °C 1.6 °C 997.5 hPa ESE 9.7 km/h 12.9 km/h 94 % 0 mm 0 W/m2
03:20 2.4 °C 1.6 °C 997.9 hPa SE 9.7 km/h 9.7 km/h 94 % 0 mm 0 W/m2
03:25 2.5 °C 1.6 °C 997.5 hPa SE 9.7 km/h 9.7 km/h 94 % 0 mm 0 W/m2
03:30 2.5 °C 1.6 °C 997.5 hPa SE 8 km/h 8 km/h 94 % 0 mm 0 W/m2
03:35 2.5 °C 1.6 °C 997.5 hPa SE 9.7 km/h 9.7 km/h 94 % 0 mm 0 W/m2
03:40 2.6 °C 1.7 °C 997.5 hPa SE 9.7 km/h 9.7 km/h 94 % 0 mm 0 W/m2
03:50 2.6 °C 1.9 °C 997.9 hPa SSE 8 km/h 8 km/h 95 % 0 mm 0 W/m2
03:55 2.6 °C 1.9 °C 997.9 hPa South 4.8 km/h 8 km/h 95 % 0 mm 0 W/m2
04:00 2.6 °C 1.9 °C 997.9 hPa SSE 3.2 km/h 6.4 km/h 95 % 0 mm 0 W/m2
04:05 2.7 °C 1.9 °C 997.9 hPa SSE 3.2 km/h 6.4 km/h 95 % 0 mm 0 W/m2
04:10 2.7 °C 1.9 °C 998.2 hPa Calm   6.4 km/h 95 % 0 mm 0 W/m2
04:20 2.7 °C 1.9 °C 998.2 hPa Calm   6.4 km/h 95 % 0 mm 0 W/m2
04:25 2.7 °C 2 °C 997.9 hPa Calm   6.4 km/h 95 % 0 mm 0 W/m2
04:30 2.7 °C 1.8 °C 997.9 hPa Calm   6.4 km/h 94 % 0 mm 0 W/m2
04:40 2.7 °C 1.8 °C 998.2 hPa Calm   6.4 km/h 94 % 0 mm 0 W/m2
04:45 2.7 °C 2 °C 998.5 hPa Calm   6.4 km/h 95 % 0 mm 0 W/m2
04:55 2.8 °C 2.1 °C 998.5 hPa SE 8 km/h 12.9 km/h 95 % 0 mm 0 W/m2
05:00 2.9 °C 2.2 °C 998.5 hPa SE 6.4 km/h 6.4 km/h 95 % 0 mm 0 W/m2
05:05 2.8 °C 1.9 °C 998.5 hPa SE 3.2 km/h 6.4 km/h 94 % 0 mm 0 W/m2
05:10 2.8 °C 1.9 °C 998.9 hPa ESE 3.2 km/h 6.4 km/h 94 % 0 mm 0 W/m2
05:15 2.8 °C 1.9 °C 998.9 hPa ESE 4.8 km/h 6.4 km/h 94 % 0 mm 0 W/m2
05:25 2.8 °C 2.1 °C 998.9 hPa ESE 1.6 km/h 6.4 km/h 95 % 0 mm 0 W/m2
05:30 2.8 °C 1.9 °C 998.9 hPa Calm   6.4 km/h 94 % 0 mm 0 W/m2
05:35 2.8 °C 2.1 °C 998.9 hPa Calm   6.4 km/h 95 % 0 mm 0 W/m2
05:40 2.8 °C 1.9 °C 998.9 hPa Calm   6.4 km/h 94 % 0 mm 0 W/m2
05:45 2.8 °C 2.1 °C 998.9 hPa Calm   6.4 km/h 95 % 0 mm 0 W/m2
05:50 2.9 °C 2.2 °C 998.9 hPa Calm   6.4 km/h 95 % 0 mm 0 W/m2
06:00 3 °C 2.3 °C 998.9 hPa SSE 1.6 km/h 1.6 km/h 95 % 0 mm 0 W/m2
06:05 3 °C 2.3 °C 998.9 hPa Calm   6.4 km/h 95 % 0 mm 0 W/m2
06:10 3 °C 2.3 °C 999.2 hPa Calm   6.4 km/h 95 % 0 mm 0 W/m2
06:15 3 °C 2.3 °C 999.2 hPa Calm   6.4 km/h 95 % 0 mm 0 W/m2
06:20 3 °C 2.3 °C 999.2 hPa Calm   6.4 km/h 95 % 0 mm 0 W/m2
06:30 3 °C 2.3 °C 999.5 hPa Calm   6.4 km/h 95 % 0 mm 0 W/m2
06:35 2.9 °C 2.2 °C 999.5 hPa Calm   6.4 km/h 95 % 0 mm 0 W/m2
06:40 3 °C 2.3 °C 999.5 hPa Calm   6.4 km/h 95 % 0 mm 0 W/m2
06:45 2.9 °C 2.2 °C 999.5 hPa Calm   6.4 km/h 95 % 0 mm 0 W/m2
06:50 3 °C 2.3 °C 999.9 hPa Calm   6.4 km/h 95 % 0 mm 0 W/m2
06:55 3 °C 2.3 °C 999.9 hPa Calm   6.4 km/h 95 % 0 mm 0 W/m2
07:05 3 °C 2.3 °C 999.9 hPa Calm   6.4 km/h 95 % 0 mm 0 W/m2
07:10 3 °C 2.3 °C 999.9 hPa Calm   6.4 km/h 95 % 0 mm 0 W/m2
07:15 3 °C 2.3 °C 999.9 hPa Calm   6.4 km/h 95 % 0 mm 0 W/m2
07:20 3 °C 2.3 °C 1000.2 hPa Calm   6.4 km/h 95 % 0 mm 0 W/m2
07:25 3.1 °C 2.3 °C 1000.2 hPa Calm   6.4 km/h 95 % 0 mm 0 W/m2
07:35 3.1 °C 2.4 °C 1000.2 hPa Calm   6.4 km/h 95 % 0 mm 0 W/m2
07:40 3.1 °C 2.4 °C 1000.2 hPa Calm   8 km/h 95 % 0 mm 0 W/m2
07:45 3.1 °C 2.3 °C 1000.6 hPa SSE 1.6 km/h 8 km/h 95 % 0 mm 0 W/m2
07:55 3 °C 2.3 °C 1000.6 hPa Calm   6.4 km/h 95 % 0 mm 5 W/m2
08:00 3 °C 2.3 °C 1000.6 hPa Calm   6.4 km/h 95 % 0 mm 7 W/m2
08:05 2.9 °C 2.2 °C 1000.6 hPa Calm   6.4 km/h 95 % 0 mm 9 W/m2
08:10 2.9 °C 2.2 °C 1000.9 hPa SSE 1.6 km/h 6.4 km/h 95 % 0 mm 12 W/m2
08:20 3.1 °C 2.3 °C 1000.9 hPa SSE 1.6 km/h 6.4 km/h 95 % 0 mm 18 W/m2
08:25 3.1 °C 2.3 °C 1001.2 hPa West 3.2 km/h 6.4 km/h 95 % 0 mm 19 W/m2
08:30 3.1 °C 2.3 °C 1001.2 hPa West 3.2 km/h 3.2 km/h 95 % 0 mm 23 W/m2
08:35 3.1 °C 2.3 °C 1001.2 hPa Calm   6.4 km/h 95 % 0 mm 21 W/m2
08:40 3.1 °C 2.4 °C 1001.2 hPa Calm   6.4 km/h 95 % 0 mm 23 W/m2
08:45 3.1 °C 2.6 °C 1001.6 hPa East 1.6 km/h 6.4 km/h 96 % 0 mm 28 W/m2
08:55 3.2 °C 2.4 °C 1001.6 hPa East 1.6 km/h 6.4 km/h 95 % 0 mm 37 W/m2
09:00 3.2 °C 2.5 °C 1001.6 hPa East 1.6 km/h 1.6 km/h 95 % 0 mm 40 W/m2
09:05 3.3 °C 2.7 °C 1001.6 hPa East 1.6 km/h 3.2 km/h 96 % 0 mm 42 W/m2
09:15 3.3 °C 2.8 °C 1001.9 hPa Calm   6.4 km/h 96 % 0 mm 47 W/m2
09:20 3.4 °C 2.7 °C 1001.9 hPa Calm   6.4 km/h 95 % 0 mm 51 W/m2
09:25 3.4 °C 2.7 °C 1001.9 hPa Calm   6.4 km/h 95 % 0 mm 54 W/m2
09:30 3.5 °C 2.9 °C 1002.3 hPa Calm   6.4 km/h 96 % 0 mm 53 W/m2
09:35 3.5 °C 2.9 °C 1002.3 hPa East 1.6 km/h 6.4 km/h 96 % 0 mm 60 W/m2
09:40 3.6 °C 3 °C 1002.3 hPa East 1.6 km/h 1.6 km/h 96 % 0 mm 67 W/m2
09:50 3.7 °C 2.9 °C 1002.6 hPa Calm   6.4 km/h 95 % 0 mm 72 W/m2
09:55 3.8 °C 3.1 °C 1002.6 hPa Calm   6.4 km/h 95 % 0 mm 83 W/m2
10:00 3.9 °C 3.3 °C 1002.6 hPa Calm   6.4 km/h 96 % 0 mm 88 W/m2
10:05 4 °C 3.3 °C 1002.6 hPa Calm   6.4 km/h 95 % 0 mm 95 W/m2
10:10 4.1 °C 3.4 °C 1002.6 hPa Calm   6.4 km/h 95 % 0 mm 97 W/m2
10:20 4.3 °C 3.6 °C 1002.9 hPa Calm   6.4 km/h 95 % 0 mm 97 W/m2
10:25 4.3 °C 3.4 °C 1002.9 hPa NE 1.6 km/h 6.4 km/h 94 % 0 mm 114 W/m2
10:30 4.3 °C 3.4 °C 1002.9 hPa NE 3.2 km/h 6.4 km/h 94 % 0 mm 132 W/m2
10:35 4.4 °C 3.5 °C 1003.3 hPa NNW 1.6 km/h 6.4 km/h 94 % 0 mm 137 W/m2
10:40 4.5 °C 3.4 °C 1003.3 hPa NNW 1.6 km/h 1.6 km/h 93 % 0 mm 134 W/m2
10:45 4.6 °C 3.6 °C 1003.3 hPa Calm   6.4 km/h 93 % 0 mm 127 W/m2
10:55 4.8 °C 3.8 °C 1003.3 hPa Calm   6.4 km/h 93 % 0 mm 169 W/m2
11:00 4.9 °C 3.7 °C 1003.3 hPa ENE 1.6 km/h 1.6 km/h 92 % 0 mm 174 W/m2
11:05 5 °C 3.8 °C 1003.3 hPa NNE 1.6 km/h 8 km/h 92 % 0 mm 181 W/m2
11:10 5.1 °C 3.7 °C 1003.6 hPa NNE 3.2 km/h 6.4 km/h 91 % 0 mm 218 W/m2
11:15 5.2 °C 3.8 °C 1003.6 hPa NNE 3.2 km/h 6.4 km/h 91 % 0 mm 473 W/m2
11:25 5.6 °C 3.9 °C 1003.6 hPa NNW 3.2 km/h 9.7 km/h 89 % 0 mm 192 W/m2
11:30 5.8 °C 4.1 °C 1003.6 hPa NW 3.2 km/h 6.4 km/h 89 % 0 mm 192 W/m2
11:35 5.9 °C 4.1 °C 1003.6 hPa NW 3.2 km/h 6.4 km/h 88 % 0 mm 156 W/m2
11:40 5.9 °C 3.7 °C 1003.9 hPa NW 3.2 km/h 3.2 km/h 86 % 0 mm 153 W/m2
11:45 5.9 °C 3.7 °C 1003.9 hPa NW 1.6 km/h 6.4 km/h 86 % 0 mm 139 W/m2
11:50 5.9 °C 3.7 °C 1003.9 hPa NW 1.6 km/h 6.4 km/h 86 % 0 mm 144 W/m2
12:00 5.9 °C 3.8 °C 1004.3 hPa NE 1.6 km/h 6.4 km/h 86 % 0 mm 172 W/m2
12:05 6 °C 3.8 °C 1004.3 hPa NNE 1.6 km/h 6.4 km/h 86 % 0 mm 172 W/m2
12:10 6 °C 3.7 °C 1004.3 hPa NNE 3.2 km/h 3.2 km/h 85 % 0 mm 158 W/m2
12:15 6 °C 3.7 °C 1004.6 hPa NNE 1.6 km/h 6.4 km/h 85 % 0 mm 142 W/m2
12:20 6 °C 3.7 °C 1004.6 hPa NNE 1.6 km/h 1.6 km/h 85 % 0 mm 134 W/m2
12:30 6 °C 3.5 °C 1004.6 hPa NNE 1.6 km/h 1.6 km/h 84 % 0 mm 146 W/m2
12:35 6.1 °C 3.8 °C 1004.6 hPa NNE 1.6 km/h 6.4 km/h 85 % 0 mm 155 W/m2
12:45 6.1 °C 3.6 °C 1005 hPa Calm   6.4 km/h 84 % 0 mm 155 W/m2
12:50 6.2 °C 3.7 °C 1005 hPa Calm   6.4 km/h 84 % 0 mm 146 W/m2
12:55 6.2 °C 3.6 °C 1005 hPa Calm   6.4 km/h 83 % 0 mm 165 W/m2
13:05 6.3 °C 3.6 °C 1005.3 hPa NNE 1.6 km/h 6.4 km/h 83 % 0 mm 199 W/m2
13:10 6.4 °C 3.7 °C 1005.3 hPa NNE 1.6 km/h 1.6 km/h 83 % 0 mm 186 W/m2
13:15 6.4 °C 3.6 °C 1005.3 hPa NNE 1.6 km/h 6.4 km/h 82 % 0 mm 153 W/m2
13:20 6.5 °C 3.5 °C 1005.3 hPa Calm   6.4 km/h 81 % 0 mm 105 W/m2
13:25 6.6 °C 3.5 °C 1005.6 hPa Calm   6.4 km/h 81 % 0 mm 134 W/m2
13:35 6.5 °C 3.3 °C 1005.6 hPa NNE 1.6 km/h 6.4 km/h 80 % 0 mm 155 W/m2
13:40 6.5 °C 3.3 °C 1005.6 hPa NNE 1.6 km/h 1.6 km/h 80 % 0 mm 128 W/m2
13:45 6.5 °C 3.3 °C 1005.3 hPa NNE 1.6 km/h 6.4 km/h 80 % 0 mm 127 W/m2
13:50 6.5 °C 3.3 °C 1005.6 hPa North 1.6 km/h 6.4 km/h 80 % 0 mm 239 W/m2
13:55 6.5 °C 3.3 °C 1005.6 hPa North 1.6 km/h 6.4 km/h 80 % 0 mm 179 W/m2
14:00 6.5 °C 3.3 °C 1005.6 hPa NNW 1.6 km/h 6.4 km/h 80 % 0 mm 118 W/m2
14:10 6.6 °C 3.6 °C 1005.6 hPa NW 1.6 km/h 1.6 km/h 81 % 0 mm 102 W/m2
14:15 6.7 °C 3.4 °C 1005.6 hPa NW 1.6 km/h 3.2 km/h 80 % 0 mm 104 W/m2
14:20 6.7 °C 3.5 °C 1006 hPa NW 1.6 km/h 1.6 km/h 80 % 0 mm 95 W/m2
14:25 6.7 °C 3.5 °C 1006 hPa NW 1.6 km/h 6.4 km/h 80 % 0 mm 81 W/m2
14:30 6.7 °C 3.4 °C 1006 hPa NW 1.6 km/h 6.4 km/h 80 % 0 mm 84 W/m2
14:40 6.6 °C 3.3 °C 1006 hPa NW 4.8 km/h 4.8 km/h 80 % 0 mm 86 W/m2
14:45 6.6 °C 3.4 °C 1006.3 hPa NW 4.8 km/h 8 km/h 80 % 0 mm 70 W/m2
14:50 6.6 °C 3.2 °C 1006.3 hPa WNW 4.8 km/h 4.8 km/h 79 % 0 mm 51 W/m2
14:55 6.5 °C 2.9 °C 1006.7 hPa NW 6.4 km/h 6.4 km/h 78 % 0 mm 39 W/m2
15:00 6.5 °C 2.9 °C 1006.7 hPa NW 8 km/h 8 km/h 78 % 0 mm 44 W/m2
15:05 6.5 °C 2.9 °C 1006.7 hPa WNW 4.8 km/h 8 km/h 78 % 0 mm 46 W/m2
15:15 6.5 °C 3.1 °C 1007 hPa Calm   6.4 km/h 79 % 0 mm 40 W/m2
15:20 6.5 °C 2.9 °C 1007 hPa Calm   6.4 km/h 78 % 0 mm 37 W/m2
15:25 6.6 °C 3 °C 1007 hPa Calm   6.4 km/h 78 % 0 mm 32 W/m2
15:30 6.6 °C 3 °C 1007.3 hPa Calm   6.4 km/h 78 % 0 mm 37 W/m2
15:35 6.6 °C 3.2 °C 1007.3 hPa Calm   6.4 km/h 79 % 0 mm 35 W/m2
15:40 6.6 °C 3 °C 1007.3 hPa Calm   6.4 km/h 78 % 0 mm 32 W/m2
15:50 6.6 °C 3.2 °C 1007.7 hPa Calm   6.4 km/h 79 % 0 mm 30 W/m2
15:55 6.6 °C 3.2 °C 1007.7 hPa Calm   6.4 km/h 79 % 0 mm 39 W/m2
16:00 6.5 °C 2.9 °C 1007.7 hPa Calm   6.4 km/h 78 % 0 mm 37 W/m2
16:05 6.5 °C 2.9 °C 1007.7 hPa Calm   6.4 km/h 78 % 0 mm 35 W/m2
16:10 6.5 °C 3.1 °C 1007.7 hPa Calm   6.4 km/h 79 % 0 mm 28 W/m2
16:20 6.4 °C 3.1 °C 1008 hPa Calm   6.4 km/h 79 % 0 mm 19 W/m2
16:25 6.4 °C 3.2 °C 1008 hPa Calm   6.4 km/h 80 % 0 mm 19 W/m2
16:30 6.4 °C 3.2 °C 1008 hPa Calm   6.4 km/h 80 % 0 mm 19 W/m2
16:35 6.4 °C 3.2 °C 1008 hPa Calm   6.4 km/h 80 % 0 mm 18 W/m2
16:45 6.3 °C 3.1 °C 1008.4 hPa Calm   6.4 km/h 80 % 0 mm 14 W/m2
16:50 6.2 °C 3.2 °C 1008.4 hPa Calm   6.4 km/h 81 % 0 mm 9 W/m2
16:55 6.1 °C 3.1 °C 1008.4 hPa Calm   6.4 km/h 81 % 0 mm 5 W/m2
17:05 5.8 °C 2.8 °C 1008.7 hPa WNW 1.6 km/h 6.4 km/h 81 % 0 mm 5 W/m2
17:10 5.7 °C 2.9 °C 1008.7 hPa Calm   6.4 km/h 82 % 0 mm 0 W/m2
17:15 5.6 °C 2.7 °C 1008.7 hPa Calm   6.4 km/h 82 % 0 mm 0 W/m2
17:20 5.4 °C 2.6 °C 1009 hPa Calm   6.4 km/h 82 % 0 mm 0 W/m2
17:30 5.1 °C 2.4 °C 1009.4 hPa WNW 1.6 km/h 6.4 km/h 83 % 0 mm 0 W/m2
17:35 4.9 °C 2.3 °C 1009.4 hPa WNW 3.2 km/h 6.4 km/h 83 % 0 mm 0 W/m2
17:40 4.8 °C 2.1 °C 1009.4 hPa WNW 1.6 km/h 1.6 km/h 83 % 0 mm 0 W/m2
17:45 4.7 °C 2 °C 1009.4 hPa Calm   6.4 km/h 83 % 0 mm 0 W/m2
17:50 4.5 °C 2.1 °C 1009.7 hPa Calm   6.4 km/h 84 % 0 mm 0 W/m2
18:00 4.1 °C 1.8 °C 1009.7 hPa Calm   6.4 km/h 85 % 0 mm 0 W/m2
18:05 3.9 °C 1.8 °C 1010 hPa Calm   6.4 km/h 86 % 0 mm 0 W/m2
18:10 3.8 °C 1.7 °C 1010 hPa Calm   6.4 km/h 86 % 0 mm 0 W/m2
18:15 3.6 °C 1.5 °C 1010 hPa Calm   6.4 km/h 86 % 0 mm 0 W/m2
18:20 3.4 °C 1.5 °C 1010 hPa Calm   6.4 km/h 87 % 0 mm 0 W/m2
18:25 3.3 °C 1.4 °C 1010.4 hPa Calm   6.4 km/h 87 % 0 mm 0 W/m2
18:35 3.1 °C 1.3 °C 1010.4 hPa Calm   6.4 km/h 88 % 0 mm 0 W/m2
18:40 3.1 °C 1.4 °C 1010.4 hPa Calm   6.4 km/h 89 % 0 mm 0 W/m2
18:45 2.9 °C 1.3 °C 1010.4 hPa Calm   6.4 km/h 89 % 0 mm 0 W/m2
18:50 2.8 °C 1.2 °C 1010.7 hPa WNW 1.6 km/h 6.4 km/h 89 % 0 mm 0 W/m2
18:55 2.8 °C 1.3 °C 1010.7 hPa WNW 3.2 km/h 6.4 km/h 90 % 0 mm 0 W/m2
19:05 2.9 °C 1.6 °C 1010.7 hPa WNW 1.6 km/h 6.4 km/h 91 % 0 mm 0 W/m2
19:10 2.9 °C 1.6 °C 1010.7 hPa WNW 1.6 km/h 1.6 km/h 91 % 0 mm 0 W/m2
19:15 2.8 °C 1.5 °C 1010.7 hPa Calm   4.8 km/h 91 % 0 mm 0 W/m2
19:20 2.9 °C 1.6 °C 1010.7 hPa WNW 1.6 km/h 9.7 km/h 91 % 0 mm 0 W/m2
19:25 3.1 °C 1.7 °C 1010.7 hPa NNW 3.2 km/h 9.7 km/h 91 % 0 mm 0 W/m2
19:30 3.2 °C 1.9 °C 1011.1 hPa NW 4.8 km/h 8 km/h 91 % 0 mm 0 W/m2
19:40 3.4 °C 1.9 °C 1011.1 hPa NW 4.8 km/h 4.8 km/h 90 % 0 mm 0 W/m2
19:45 3.4 °C 1.9 °C 1011.4 hPa NW 3.2 km/h 6.4 km/h 90 % 0 mm 0 W/m2
19:50 3.4 °C 1.9 °C 1011.4 hPa NW 1.6 km/h 1.6 km/h 90 % 0 mm 0 W/m2
20:00 3.3 °C 1.6 °C 1011.7 hPa Calm   6.4 km/h 89 % 0 mm 0 W/m2
20:05 3.2 °C 1.6 °C 1011.7 hPa Calm   6.4 km/h 89 % 0 mm 0 W/m2
20:10 3.1 °C 1.4 °C 1011.7 hPa Calm   6.4 km/h 89 % 0 mm 0 W/m2
20:20 2.9 °C 1.3 °C 1012.1 hPa Calm   6.4 km/h 89 % 0 mm 0 W/m2
20:25 2.8 °C 1.3 °C 1012.1 hPa Calm   6.4 km/h 90 % 0 mm 0 W/m2
20:30 2.8 °C 1.3 °C 1012.4 hPa Calm   6.4 km/h 90 % 0 mm 0 W/m2
20:35 2.7 °C 1.2 °C 1012.4 hPa Calm   6.4 km/h 90 % 0 mm 0 W/m2
20:45 2.5 °C 1 °C 1012.8 hPa Calm   6.4 km/h 90 % 0 mm 0 W/m2
20:50 2.4 °C 0.9 °C 1012.8 hPa Calm   6.4 km/h 90 % 0 mm 0 W/m2
20:55 2.3 °C 0.8 °C 1013.1 hPa Calm   6.4 km/h 90 % 0 mm 0 W/m2
21:00 2.2 °C 0.8 °C 1013.1 hPa Calm   6.4 km/h 90 % 0 mm 0 W/m2
21:05 2.2 °C 0.8 °C 1013.1 hPa Calm   6.4 km/h 91 % 0 mm 0 W/m2
21:10 2.2 °C 0.8 °C 1013.1 hPa Calm   6.4 km/h 91 % 0 mm 0 W/m2
21:20 2.1 °C 0.7 °C 1013.4 hPa Calm   6.4 km/h 91 % 0 mm 0 W/m2
21:25 2 °C 0.7 °C 1013.4 hPa Calm   6.4 km/h 91 % 0 mm 0 W/m2
21:30 1.9 °C 0.6 °C 1013.8 hPa Calm   6.4 km/h 91 % 0 mm 0 W/m2
21:35 1.8 °C 0.7 °C 1013.8 hPa Calm   6.4 km/h 92 % 0 mm 0 W/m2
21:40 1.8 °C 0.6 °C 1013.8 hPa Calm   6.4 km/h 92 % 0 mm 0 W/m2
21:50 1.6 °C 0.4 °C 1013.8 hPa Calm   6.4 km/h 92 % 0 mm 0 W/m2
21:55 1.4 °C 0.1 °C 1013.8 hPa Calm   6.4 km/h 91 % 0 mm 0 W/m2
22:00 1.3 °C 0.1 °C 1014.1 hPa Calm   6.4 km/h 92 % 0 mm 0 W/m2
22:05 1.1 °C -0.2 °C 1014.1 hPa Calm   6.4 km/h 91 % 0 mm 0 W/m2
22:10 0.9 °C -0.4 °C 1014.1 hPa Calm   6.4 km/h 91 % 0 mm 0 W/m2
22:15 0.8 °C -0.4 °C 1014.1 hPa Calm   6.4 km/h 92 % 0 mm 0 W/m2
22:25 0.6 °C -0.6 °C 1014.1 hPa Calm   6.4 km/h 92 % 0 mm 0 W/m2
22:30 0.4 °C -0.7 °C 1014.4 hPa Calm   6.4 km/h 92 % 0 mm 0 W/m2
22:33 0.6 °C -0.4 °C 1014.4 hPa Calm   -1607.7 km/h 93 % 0 mm 0 W/m2
22:35 0.4 °C -0.6 °C 1014.4 hPa Calm   6.4 km/h 93 % 0 mm 0 W/m2
22:40 0.3 °C -0.7 °C 1014.4 hPa Calm   6.4 km/h 93 % 0 mm 0 W/m2
22:45 0.3 °C -0.7 °C 1014.4 hPa Calm   6.4 km/h 93 % 0 mm 0 W/m2
22:50 0.4 °C -0.4 °C 1014.4 hPa Calm   -1607.7 km/h 94 % 0 mm 0 W/m2
22:55 0.5 °C -0.3 °C 1014.4 hPa Calm   6.4 km/h 94 % 0 mm 0 W/m2
23:00 0.6 °C -0.3 °C 1014.4 hPa Calm   6.4 km/h 94 % 0 mm 0 W/m2
23:05 0.6 °C -0.2 °C 1014.8 hPa Calm   6.4 km/h 94 % 0 mm 0 W/m2
23:10 0.7 °C -0.1 °C 1014.8 hPa Calm   -1607.7 km/h 95 % 0 mm 0 W/m2
23:15 0.7 °C -0.1 °C 1014.8 hPa Calm   -1607.7 km/h 95 % 0 mm 0 W/m2
23:20 0.7 °C -0.1 °C 1014.8 hPa Calm   -1607.7 km/h 95 % 0 mm 0 W/m2
23:25 0.8 °C 0 °C 1014.8 hPa Calm   -1607.7 km/h 94 % 0 mm 0 W/m2
23:30 0.8 °C 0 °C 1014.8 hPa Calm   -1607.7 km/h 94 % 0 mm 0 W/m2
23:35 0.8 °C 0 °C 1014.8 hPa Calm   -1607.7 km/h 94 % 0 mm 0 W/m2
23:40 0.8 °C -0.1 °C 1014.8 hPa Calm   -1607.7 km/h 94 % 0 mm 0 W/m2
23:45 0.8 °C -0.1 °C 1014.8 hPa Calm   -1607.7 km/h 94 % 0 mm 0 W/m2
23:50 0.8 °C -0.1 °C 1014.8 hPa Calm   -1607.7 km/h 94 % 0 mm 0 W/m2
23:55 0.6 °C -0.3 °C 1015.1 hPa Calm   -1607.7 km/h 94 % 0 mm 0 W/m2
Delerius-Weather
Compliments of Weather Underground - 2 mb

Data updates at regular intervals.